Terminal Aerodrome Forecast
Issued by NWS Tampa Bay Area, FL

Home | Current Version | Previous Version | Text Only | Print | Product List | Glossary On
Versions: 1 2 3 4 5 6 7 8 9 10 11 12 13 14 15 16
000
FTUS42 KTBW 281141
TAFSRQ
TAF
KSRQ 281141Z 2812/2912 06004KT P6SM SCT250
     FM281400 06005KT P6SM SCT030 SCT250
     FM281700 32006KT P6SM SCT040 SCT250
     FM282000 30008KT P6SM VCTS SCT025CB BKN050
     FM290000 06006KT P6SM SCT050 BKN250
     FM290300 08004KT P6SM FEW050 SCT250=

USA.gov is the U.S. government's official web portal to all federal, state and local government web resources and services.